New Century — A8EL5 — position and weather

sailwx.info

Track history (hours):
 
Tides and Currents Weather Stations Pressure Air Temp Water Temp Dewpoint Dewpoint Depression Visibility Wind Speed Wind Dir Waves Ship Positions

New Century

Last reported at 2017-Nov-04 19:49 UTC. Time now 2017-Nov-19 12:23 UTC.
Position S 25°17' W 046°27'.
Warning: this ship's position is 14 days out of date.

Length 330 m; draft 11 m.

Type: Tanker. MMSI: 636012275.

Date/timePositionNaut miles runAvg speedWind from/ knotsBaromVisibWave heightAir tempDewpointWater temp
2017-Nov-04 19:49S 25°17' W 046°27'1 1.9
2017-Nov-04 19:30S 25°17' W 046°27'1 3.0
2017-Nov-04 19:00S 25°16' W 046°26'3 5.2
2017-Nov-04 18:30S 25°14' W 046°23'3 5.5
2017-Nov-04 18:00S 25°13' W 046°21'3 5.6
2017-Nov-04 17:30S 25°11' W 046°18'2 4.5
2017-Nov-04 17:00S 25°10' W 046°16'2 3.5
2017-Nov-04 16:30S 25°09' W 046°14'0 0.9
2017-Nov-04 16:00S 25°09' W 046°14'3 5.3
2017-Nov-04 15:30S 25°11' W 046°15'1 1.3
2017-Nov-04 15:00S 25°11' W 046°15'1 2.1
2017-Nov-04 14:19S 25°10' W 046°14'0 1.0
2017-Nov-04 14:00S 25°10' W 046°14'1 1.7
2017-Nov-04 13:30S 25°10' W 046°13'0 0.3
2017-Nov-04 13:00S 25°10' W 046°13'1 1.9
2017-Nov-04 12:30S 25°10' W 046°14'2 4.9
2017-Nov-04 12:00S 25°13' W 046°15'5 9.4
2017-Nov-04 11:30S 25°17' W 046°17'5 9.8
2017-Nov-04 11:00S 25°22' W 046°19'3 5.5
2017-Nov-04 10:30S 25°24' W 046°19'2 3.1
2017-Nov-04 10:00S 25°23' W 046°18'1 2.7
2017-Nov-04 09:30S 25°22' W 046°17'1 2.6
2017-Nov-04 08:59S 25°21' W 046°17'1 2.1
2017-Nov-04 08:30S 25°21' W 046°16'1 1.1
2017-Nov-04 08:00S 25°20' W 046°15'0 0.4
2017-Nov-04 07:30S 25°20' W 046°16'1 1.1
2017-Nov-04 07:00S 25°20' W 046°16'3 6.0
2017-Nov-04 06:30S 25°20' W 046°19'1 1.4
2017-Nov-04 05:57S 25°19' W 046°20'0 0.1
2017-Nov-04 05:30S 25°19' W 046°20'0 0.0
2017-Nov-04 05:00S 25°19' W 046°20'0 0.0
2017-Nov-04 04:24S 25°19' W 046°20'0 0.0
2017-Nov-04 04:00S 25°19' W 046°20'0 0.0
2017-Nov-04 03:30S 25°19' W 046°20'0 0.0
2017-Nov-04 03:00S 25°19' W 046°20'0 0.0
2017-Nov-04 02:06S 25°19' W 046°20'0 0.1
2017-Nov-04 02:00S 25°19' W 046°20'0 0.0
2017-Nov-04 00:30S 25°19' W 046°20'0 0.0
2017-Nov-03 23:48S 25°19' W 046°20'0 0.1
2017-Nov-03 23:30S 25°19' W 046°20'0 0.0
2017-Nov-03 23:00S 25°19' W 046°20'0 0.0
2017-Nov-03 22:18S 25°19' W 046°20'0 0.1
2017-Nov-03 22:00S 25°19' W 046°20'0 0.0
2017-Nov-03 21:21S 25°19' W 046°20'0 0.0
2017-Nov-03 20:54S 25°19' W 046°20'0 0.0
2017-Nov-03 20:12S 25°19' W 046°20'0 0.1
2017-Nov-03 20:00S 25°19' W 046°20'0 0.0
2017-Nov-03 19:18S 25°19' W 046°20'0 0.0
2017-Nov-03 19:00S 25°19' W 046°20'0 0.0
2017-Nov-03 18:30S 25°19' W 046°20'0 0.0
2017-Nov-03 17:57S 25°19' W 046°20'0 0.0
2017-Nov-03 17:30S 25°19' W 046°20'0 0.0
2017-Nov-03 16:54S 25°19' W 046°20'0 0.0
2017-Nov-03 16:30S 25°19' W 046°20'0 0.0
2017-Nov-03 15:54S 25°19' W 046°20'  
Track history (hours):
 
Tides and Currents Weather Stations Pressure Air Temp Water Temp Dewpoint Dewpoint Depression Visibility Wind Speed Wind Dir Waves Ship Positions

New Century

Last reported at 2017-Nov-04 19:49 UTC. Time now 2017-Nov-19 12:23 UTC.
Position S 25°17' W 046°27'.
Warning: this ship's position is 14 days out of date.

Length 330 m; draft 11 m.

Type: Tanker. MMSI: 636012275.

Date/timePositionNaut miles runAvg speedWind from/ knotsBaromVisibWave heightAir tempDewpointWater temp
2017-Nov-04 19:49S 25°17' W 046°27'1 1.9
2017-Nov-04 19:30S 25°17' W 046°27'1 3.0
2017-Nov-04 19:00S 25°16' W 046°26'3 5.2
2017-Nov-04 18:30S 25°14' W 046°23'3 5.5
2017-Nov-04 18:00S 25°13' W 046°21'3 5.6
2017-Nov-04 17:30S 25°11' W 046°18'2 4.5
2017-Nov-04 17:00S 25°10' W 046°16'2 3.5
2017-Nov-04 16:30S 25°09' W 046°14'0 0.9
2017-Nov-04 16:00S 25°09' W 046°14'3 5.3
2017-Nov-04 15:30S 25°11' W 046°15'1 1.3
2017-Nov-04 15:00S 25°11' W 046°15'1 2.1
2017-Nov-04 14:19S 25°10' W 046°14'0 1.0
2017-Nov-04 14:00S 25°10' W 046°14'1 1.7
2017-Nov-04 13:30S 25°10' W 046°13'0 0.3
2017-Nov-04 13:00S 25°10' W 046°13'1 1.9
2017-Nov-04 12:30S 25°10' W 046°14'2 4.9
2017-Nov-04 12:00S 25°13' W 046°15'5 9.4
2017-Nov-04 11:30S 25°17' W 046°17'5 9.8
2017-Nov-04 11:00S 25°22' W 046°19'3 5.5
2017-Nov-04 10:30S 25°24' W 046°19'2 3.1
2017-Nov-04 10:00S 25°23' W 046°18'1 2.7
2017-Nov-04 09:30S 25°22' W 046°17'1 2.6
2017-Nov-04 08:59S 25°21' W 046°17'1 2.1
2017-Nov-04 08:30S 25°21' W 046°16'1 1.1
2017-Nov-04 08:00S 25°20' W 046°15'0 0.4
2017-Nov-04 07:30S 25°20' W 046°16'1 1.1
2017-Nov-04 07:00S 25°20' W 046°16'3 6.0
2017-Nov-04 06:30S 25°20' W 046°19'1 1.4
2017-Nov-04 05:57S 25°19' W 046°20'0 0.1
2017-Nov-04 05:30S 25°19' W 046°20'0 0.0
2017-Nov-04 05:00S 25°19' W 046°20'0 0.0
2017-Nov-04 04:24S 25°19' W 046°20'0 0.0
2017-Nov-04 04:00S 25°19' W 046°20'0 0.0
2017-Nov-04 03:30S 25°19' W 046°20'0 0.0
2017-Nov-04 03:00S 25°19' W 046°20'0 0.0
2017-Nov-04 02:06S 25°19' W 046°20'0 0.1
2017-Nov-04 02:00S 25°19' W 046°20'0 0.0
2017-Nov-04 00:30S 25°19' W 046°20'0 0.0
2017-Nov-03 23:48S 25°19' W 046°20'0 0.1
2017-Nov-03 23:30S 25°19' W 046°20'0 0.0
2017-Nov-03 23:00S 25°19' W 046°20'0 0.0
2017-Nov-03 22:18S 25°19' W 046°20'0 0.1
2017-Nov-03 22:00S 25°19' W 046°20'0 0.0
2017-Nov-03 21:21S 25°19' W 046°20'0 0.0
2017-Nov-03 20:54S 25°19' W 046°20'0 0.0
2017-Nov-03 20:12S 25°19' W 046°20'0 0.1
2017-Nov-03 20:00S 25°19' W 046°20'0 0.0
2017-Nov-03 19:18S 25°19' W 046°20'0 0.0
2017-Nov-03 19:00S 25°19' W 046°20'0 0.0
2017-Nov-03 18:30S 25°19' W 046°20'0 0.0
2017-Nov-03 17:57S 25°19' W 046°20'0 0.0
2017-Nov-03 17:30S 25°19' W 046°20'0 0.0
2017-Nov-03 16:54S 25°19' W 046°20'0 0.0
2017-Nov-03 16:30S 25°19' W 046°20'0 0.0
2017-Nov-03 15:54S 25°19' W 046°20'  

Dump ship's entire track history